• Join FlightAware (Why Join?)
  • Login
  • US Flag 
06:20AM EDT


 

Airport Tracker/Info


-or-


 

Live Flight TrackerFlight Track Log ✈ JBU161 ✈ 11-Oct-2013 ✈ KJFK - KSMF

Flight Track Log - Related Links

Times and Time Zones

All times are in EDT time to prevent confusion due to time zone crossing. See the JBU161 flight status page for this flight to view local times or setup timezone preferences in your user account.

Time Position Orientation Groundspeed Altitude Reporting Facility
EDT Latitude Longitude Course Direction KTS MPH feet Rate Location/Type
08:23PM 40.6833 -73.7000 304° West 201 231 2,500  Level New York TRACON
08:24PM 40.7167 -73.6167 62° Northeast 242 278 5,400 2,220 Climbing New York TRACON
08:25PM 40.7153 -74.2172 315° West  Level Estimated
08:25PM 40.7500 -73.5500 57° Northeast 269 310 7,000  Level New York TRACON
08:26PM 40.7402 -74.3635 304° West  Level Estimated
08:26PM 40.8167 -73.5000 30° Northeast 271 312 7,000  Level New York TRACON
08:27PM 40.7648 -74.5099 323° Northwest  Level Estimated
08:27PM 40.8833 -73.4667 21° North 282 325 7,100  Level New York TRACON
08:28PM 40.7893 -74.6564 288° West  Level Estimated
08:28PM 40.9667 -73.5000 343° North 291 335 9,600  Level New York TRACON
08:29PM 40.8135 -74.8031 304° West  Level Estimated
08:30PM 41.0428 -73.6708 301° West 335 386 13,200  Level New York Center
08:31PM 41.0711 -73.7875 288° West 335 386 15,000 1,800 Climbing New York Center
08:32PM 41.0800 -73.9228 275° West 356 410 16,800 1,320 Climbing New York Center
08:33PM 41.1011 -74.0614 281° West 377 434 17,700 720 Climbing New York Center
08:34PM 41.1408 -74.2039 290° West 407 468 18,300 540 Climbing New York Center
08:35PM 41.1783 -74.3464 289° West 415 478 18,800 660 Climbing New York Center
08:36PM 41.2175 -74.4892 290° West 410 472 19,700 1,200 Climbing New York Center
08:37PM 41.2567 -74.6375 289° West 410 472 21,200 1,500 Climbing New York Center
08:38PM 41.2953 -74.7861 289° West 421 484 22,700 1,440 Climbing New York Center
08:39PM 41.3303 -74.9208 289° West 438 504 24,100 1,200 Climbing New York Center
08:40PM 41.3708 -75.0725 290° West 433 498 25,200 1,080 Climbing New York Center
08:41PM 41.4089 -75.2217 289° West 433 498 26,300 1,020 Climbing New York Center
08:42PM 41.4486 -75.3792 289° West 438 504 27,300 960 Climbing New York Center
08:43PM 41.4886 -75.5314 289° West 438 504 28,300 960 Climbing New York Center
08:44PM 41.5344 -75.6844 292° West 438 504 29,300 960 Climbing New York Center
08:45PM 41.5797 -75.8403 291° West 438 504 30,300 900 Climbing New York Center
08:46PM 41.6211 -75.9933 290° West 438 504 31,200 840 Climbing New York Center
08:47PM 41.6644 -76.1439 291° West 438 504 32,000 360 Climbing New York Center
08:48PM 41.7075 -76.2917 291° West 438 504 32,000  Level New York Center
08:49PM 41.7464 -76.4422 289° West 438 504 32,000  Level New York Center
08:51PM 41.8325 -76.7506 291° West 435 501 32,000  Level Cleveland Center
08:52PM 41.8753 -76.9036 291° West 436 502 32,000  Level Cleveland Center
08:53PM 41.9172 -77.0578 290° West 439 505 32,000  Level Cleveland Center
08:54PM 41.9592 -77.2122 290° West 440 506 32,000  Level Cleveland Center
08:55PM 42.0006 -77.3692 290° West 444 511 32,000  Level Cleveland Center
08:56PM 42.0428 -77.5247 290° West 443 510 32,000  Level Cleveland Center
08:57PM 42.0842 -77.6803 290° West 440 506 32,000  Level Cleveland Center
08:58PM 42.1253 -77.8358 290° West 440 506 32,000  Level Cleveland Center
08:59PM 42.1747 -78.0258 289° West 444 511 32,000  Level Cleveland Center
09:00PM 42.2150 -78.1819 289° West 438 504 32,000  Level Cleveland Center
09:01PM 42.2556 -78.3406 289° West 444 511 32,000  Level Cleveland Center
09:02PM 42.2950 -78.4969 289° West 442 509 32,000  Level Cleveland Center
09:03PM 42.3347 -78.6531 289° West 440 506 32,000  Level Cleveland Center
09:04PM 42.3739 -78.8100 289° West 439 505 32,000  Level Cleveland Center
09:06PM 42.4153 -78.9722 289° West 441 507 32,000  Level Cleveland Center
09:07PM 42.4581 -79.1389 289° West 436 502 32,000  Level Cleveland Center
09:08PM 42.4931 -79.3119 285° West 436 502 32,000  Level Cleveland Center
09:09PM 42.5014 -79.4761 274° West 438 504 32,000  Level Cleveland Center
09:10PM 42.5097 -79.6422 274° West 442 509 32,000  Level Cleveland Center
09:11PM 42.5172 -79.8075 274° West 441 507 32,000  Level Cleveland Center
09:12PM 42.5233 -79.9792 273° West 442 509 32,000  Level Cleveland Center
09:13PM 42.5303 -80.1581 273° West 440 506 32,000  Level Cleveland Center
09:14PM 42.5364 -80.3250 273° West 441 507 32,000  Level Cleveland Center
09:15PM 42.5442 -80.4933 274° West 444 511 32,000  Level Cleveland Center
09:16PM 42.5508 -80.6592 273° West 441 507 32,000  Level Cleveland Center
09:17PM 42.5572 -80.8314 273° West 452 520 32,000  Level Cleveland Center
09:18PM 42.5628 -80.9975 273° West 443 510 32,000  Level Cleveland Center
09:19PM 42.5692 -81.1636 273° West 440 506 32,000  Level Cleveland Center
09:20PM 42.5750 -81.3311 273° West 441 507 32,000  Level Cleveland Center
09:21PM 42.5872 -81.4958 276° West 438 504 32,000  Level Cleveland Center
09:22PM 42.6231 -81.6825 285° West 436 502 32,000  Level Cleveland Center
09:23PM 42.6478 -81.8300 283° West 436 502 32,000  Level Cleveland Center
09:24PM 42.6767 -81.9908 284° West 440 506 32,000  Level Cleveland Center
09:25PM 42.7044 -82.1525 283° West 439 505 32,000  Level Cleveland Center
09:26PM 42.7375 -82.3447 283° West 439 505 32,000  Level Cleveland Center
09:27PM 42.7642 -82.5069 283° West 441 507 32,000  Level Cleveland Center
09:28PM 42.7914 -82.6669 283° West 437 503 32,000  Level Cleveland Center
09:29PM 42.8186 -82.8261 283° West 435 501 32,000  Level Cleveland Center
09:30PM 42.8453 -82.9853 283° West 435 501 32,000  Level Cleveland Center
09:31PM 42.8703 -83.1422 282° West 430 495 32,000  Level Cleveland Center
09:32PM 42.8956 -83.2992 282° West 427 491 32,000  Level Cleveland Center
09:33PM 42.9250 -83.4911 282° West 433 498 32,000  Level Cleveland Center
09:34PM 42.9514 -83.6514 283° West 438 504 32,000  Level Cleveland Center
09:35PM 42.9731 -83.8133 280° West 438 504 32,000  Level Cleveland Center
09:36PM 42.9903 -83.9769 278° West 438 504 32,100  Climbing Cleveland Center
09:37PM 43.0058 -84.1403 277° West 437 503 32,000 -60 Descending Cleveland Center
09:38PM 43.0231 -84.3033 278° West 436 502 32,000  Level Cleveland Center
09:39PM 43.0397 -84.4778 278° West 433 498 32,000  Level Cleveland Center
09:40PM 43.0558 -84.6411 278° West 435 501 32,000  Level Cleveland Center
09:41PM 43.0708 -84.8031 277° West 431 496 32,000  Level Cleveland Center
09:47PM 43.1500 -85.6880 277° West 100 115 32,000  Level FlightAware
09:48PM 43.1520 -85.7080 278° West 100 115 32,000  Level FlightAware
09:48PM 43.1540 -85.7270 278° West 100 115 32,000  Level FlightAware
09:49PM 43.1560 -85.7460 278° West 100 115 32,000  Level FlightAware
09:49PM 43.1580 -85.7650 278° West 100 115 32,000  Level FlightAware
09:50PM 43.1600 -85.7850 278° West 100 115 32,000  Level FlightAware
09:51PM 43.1620 -85.8040 278° West 100 115 32,000  Level FlightAware
09:51PM 43.1640 -85.8230 278° West 100 115 32,000  Level FlightAware
09:52PM 43.1660 -85.8420 278° West 100 115 32,000  Level FlightAware
09:52PM 43.1680 -85.8610 278° West 100 115 32,000  Level FlightAware
09:53PM 43.1700 -85.8810 278° West 100 115 32,000  Level FlightAware
09:54PM 43.1720 -85.9000 278° West 100 115 32,000  Level FlightAware
09:54PM 43.1740 -85.9200 278° West 100 115 32,000  Level FlightAware
09:55PM 43.1760 -85.9390 278° West 100 115 32,000  Level FlightAware
09:55PM 43.1780 -85.9590 278° West 100 115 32,000  Level FlightAware
09:56PM 43.1790 -85.9770 274° West 100 115 32,000  Level FlightAware
09:57PM 43.1810 -85.9960 278° West 100 115 32,000  Level FlightAware
10:02PM 43.1250 -88.1250 269° West 100 115 32,000  Level FlightAware
10:03PM 43.1190 -88.2230 265° West 417 480 32,000  Level FlightAware
10:03PM 43.1200 -88.3110 271° West 417 480 32,000  Level FlightAware
10:04PM 43.1190 -88.4100 269° West 420 483 32,000  Level FlightAware
10:05PM 43.1250 -88.4980 275° West 420 483 32,000  Level FlightAware
10:05PM 43.1300 -88.5790 275° West 420 483 32,000  Level FlightAware
10:06PM 43.1240 -88.7270 267° West 428 493 32,000  Level FlightAware
10:07PM 43.1210 -88.8800 269° West 407 468 32,000  Level FlightAware
10:08PM 43.1240 -88.9940 272° West 409 471 32,000  Level FlightAware
10:08PM 43.1230 -89.0730 269° West 409 471 32,000  Level FlightAware
10:09PM 43.1220 -89.1520 269° West 409 471 32,000  Level FlightAware
10:10PM 43.1210 -89.2320 269° West 409 471 32,000  Level FlightAware
10:10PM 43.1200 -89.3110 269° West 409 471 32,000  Level FlightAware
10:11PM 43.1180 -89.4120 268° West 409 471 32,000  Level FlightAware
10:11PM 43.1170 -89.4920 269° West 409 471 32,000  Level FlightAware
10:12PM 43.1160 -89.5710 269° West 409 471 32,000  Level FlightAware
10:13PM 43.1150 -89.6520 269° West 409 471 32,000  Level FlightAware
10:13PM 43.1140 -89.7320 269° West 409 471 32,000  Level FlightAware
10:14PM 43.1130 -89.8110 269° West 409 471 32,000  Level FlightAware
10:15PM 43.1120 -89.8900 269° West 409 471 32,000  Level FlightAware
10:15PM 43.1110 -89.9700 269° West 409 471 32,000  Level FlightAware
10:16PM 43.1100 -90.0490 269° West 409 471 32,000  Level FlightAware
10:16PM 43.1090 -90.1300 269° West 409 471 32,000  Level FlightAware
10:17PM 43.1080 -90.2100 269° West 409 471 32,000  Level FlightAware
10:17PM 43.1325 -90.5603 269° West 407 468 32,000  Level Chicago Center
10:19PM 43.1325 -90.7150 270° West 410 472 32,000  Level Chicago Center
10:20PM 43.1317 -90.8706 270° West 412 474 32,000  Level Chicago Center
10:21PM 43.1317 -91.0539 270° West 409 471 32,000  Level Chicago Center
10:22PM 43.1303 -91.2083 269° West 410 472 32,000  Level Chicago Center
10:23PM 43.1292 -91.3611 269° West 409 471 32,000  Level Chicago Center
10:24PM 43.1294 -91.5136 270° West 409 471 32,000  Level Minneapolis Center
10:25PM 43.1278 -91.6650 269° West 407 468 32,000  Level Minneapolis Center
10:26PM 43.1244 -91.8178 268° West 409 471 32,000  Level Minneapolis Center
10:27PM 43.1222 -91.9694 269° West 408 470 32,000  Level Minneapolis Center
10:28PM 43.1197 -92.1194 269° West 403 464 32,000  Level Minneapolis Center
10:29PM 43.1181 -92.2714 269° West 403 464 32,000  Level Minneapolis Center
10:30PM 43.1142 -92.4547 268° West 407 468 32,000  Level Minneapolis Center
10:31PM 43.1106 -92.6089 268° West 410 472 32,000  Level Minneapolis Center
10:32PM 43.1078 -92.7631 269° West 410 472 32,000  Level Minneapolis Center
10:33PM 43.1039 -92.9169 268° West 410 472 32,000 60 Level Minneapolis Center
10:34PM 43.1006 -93.0708 268° West 409 471 32,200 300 Climbing Minneapolis Center
10:35PM 43.0972 -93.2228 268° West 406 467 32,700 480 Climbing Minneapolis Center
10:36PM 43.1022 -93.3747 273° West 403 464 33,200 480 Climbing Minneapolis Center
10:37PM 43.1292 -93.5283 284° West 418 481 33,700 360 Climbing Minneapolis Center
10:38PM 43.1622 -93.7178 284° West 429 494 34,000 120 Climbing Minneapolis Center
10:39PM 43.1883 -93.8756 283° West 428 493 34,000  Level Minneapolis Center
10:40PM 43.2153 -94.0325 283° West 426 490 34,000  Level Minneapolis Center
10:41PM 43.2406 -94.1864 283° West 420 483 34,000  Level Minneapolis Center
10:42PM 43.2678 -94.3333 284° West 410 472 34,000  Level Minneapolis Center
10:43PM 43.2925 -94.4842 283° West 406 467 34,000  Level Minneapolis Center
10:44PM 43.3189 -94.6356 284° West 407 468 34,000  Level Minneapolis Center
10:45PM 43.3478 -94.8167 282° West 406 467 34,000  Level Minneapolis Center
10:46PM 43.3725 -94.9697 283° West 410 472 34,000  Level Minneapolis Center
10:47PM 43.3972 -95.1225 283° West 410 472 34,000  Level Minneapolis Center
10:48PM 43.4219 -95.2764 283° West 412 474 34,000  Level Minneapolis Center
10:49PM 43.4461 -95.4292 282° West 410 472 34,000  Level Minneapolis Center
10:50PM 43.4700 -95.5836 282° West 411 473 34,000  Level Minneapolis Center
10:51PM 43.4942 -95.7386 282° West 413 475 34,000  Level Minneapolis Center
10:52PM 43.5178 -95.8956 282° West 416 479 34,000  Level Minneapolis Center
10:53PM 43.5425 -96.0564 282° West 424 488 34,000  Level Minneapolis Center
10:54PM 43.5667 -96.2172 282° West 427 491 34,000  Level Minneapolis Center
10:55PM 43.5903 -96.3781 282° West 427 491 34,100  Climbing Minneapolis Center
10:56PM 43.6150 -96.5389 282° West 427 491 34,000 -60 Descending Minneapolis Center
10:57PM 43.6372 -96.6964 281° West 421 484 34,000  Level Minneapolis Center
10:58PM 43.6564 -96.8547 280° West 418 481 34,000  Level Minneapolis Center
10:59PM 43.6697 -97.0439 276° West 414 476 34,000  Level Minneapolis Center
11:00PM 43.6822 -97.2033 276° West 417 480 34,000  Level Minneapolis Center
11:01PM 43.6944 -97.3625 276° West 416 479 34,000  Level Minneapolis Center
11:02PM 43.7064 -97.5239 276° West 421 484 34,000  Level Minneapolis Center
11:03PM 43.7183 -97.6856 276° West 424 488 34,000  Level Minneapolis Center
11:04PM 43.7300 -97.8506 276° West 429 494 34,000  Level Minneapolis Center
11:05PM 43.7414 -98.0175 275° West 435 501 34,100  Climbing Minneapolis Center
11:06PM 43.7525 -98.1844 275° West 438 504 34,100 -60 Level Minneapolis Center
11:07PM 43.7642 -98.3511 276° West 436 502 34,000 -60 Descending Minneapolis Center
11:08PM 43.7742 -98.5172 275° West 435 501 34,000  Level Minneapolis Center
11:09PM 43.7861 -98.6931 275° West 429 494 34,000  Level Minneapolis Center
11:10PM 43.7964 -98.8556 275° West 425 489 34,000  Level Minneapolis Center
11:11PM 43.8056 -99.0181 275° West 424 488 34,000  Level Minneapolis Center
11:12PM 43.8156 -99.1797 275° West 423 487 34,000  Level Minneapolis Center
11:13PM 43.8247 -99.3447 274° West 427 491 34,000  Level Minneapolis Center
11:14PM 43.8342 -99.5089 275° West 427 491 34,100  Climbing Minneapolis Center
11:15PM 43.8442 -99.6753 275° West 431 496 34,000 -60 Descending Minneapolis Center
11:16PM 43.8544 -99.8719 274° West 429 494 34,000  Level Minneapolis Center
11:17PM 43.8628 -100.0358 274° West 427 491 34,000  Level Minneapolis Center
11:19PM 43.8708 -100.1986 274° West 425 489 34,000  Level Minneapolis Center
11:20PM 43.8781 -100.3633 274° West 426 490 34,000  Level Minneapolis Center
11:21PM 43.8867 -100.5269 274° West 425 489 34,000  Level Minneapolis Center
11:22PM 43.8933 -100.6889 273° West 424 488 34,000  Level Minneapolis Center
11:23PM 43.9014 -100.8522 274° West 423 487 34,000  Level Minneapolis Center
11:24PM 43.9081 -101.0172 273° West 425 489 34,000  Level Minneapolis Center
11:25PM 43.9150 -101.1825 273° West 428 493 34,100  Climbing Minneapolis Center
11:26PM 43.9217 -101.3453 273° West 426 490 34,000 -60 Descending Minneapolis Center
11:26PM 43.9250 -101.4664 272° West 409 471 34,000  Level Denver Center
11:28PM 43.9322 -101.6528 273° West 404 465 34,000  Level Denver Center
11:29PM 43.9375 -101.8103 273° West 406 467 34,000  Level Denver Center
11:30PM 43.9417 -101.9672 272° West 408 470 34,000  Level Denver Center
11:31PM 43.9478 -102.1253 273° West 409 471 34,000  Level Denver Center
11:32PM 43.9525 -102.2817 272° West 407 468 34,000  Level Denver Center
11:33PM 43.9592 -102.4406 273° West 410 472 34,000  Level Denver Center
11:34PM 43.9639 -102.6025 272° West 415 478 34,000  Level Denver Center
11:35PM 43.9706 -102.7656 273° West 420 483 34,100  Climbing Denver Center
11:36PM 43.9750 -102.9475 272° West 418 481 34,000  Descending Denver Center
11:37PM 43.9769 -103.0975 271° West 412 474 34,100  Climbing Denver Center
11:38PM 43.9817 -103.2736 272° West 410 472 34,000 -60 Descending Denver Center
11:39PM 43.9833 -103.4206 271° West 404 465 34,000  Level Denver Center
11:40PM 43.9864 -103.5689 272° West 402 463 34,000  Level Denver Center
11:41PM 43.9894 -103.7403 271° West 401 461 34,000  Level Denver Center
11:42PM 43.9911 -103.8903 271° West 405 466 34,000  Level Denver Center
11:43PM 43.9936 -104.0697 271° West 417 480 34,000  Level Denver Center
11:44PM 43.9958 -104.2225 271° West 416 479 34,000  Level Denver Center
11:45PM 43.9972 -104.3686 271° West 402 463 34,000  Level Denver Center
11:46PM 43.9994 -104.5433 271° West 404 465 34,000  Level Denver Center
11:47PM 44.0003 -104.6936 270° West 406 467 34,000  Level Denver Center
11:48PM 44.0019 -104.8689 271° West 407 468 34,000  Level Denver Center
11:49PM 44.0025 -105.0189 270° West 407 468 34,000  Level Denver Center
11:50PM 44.0033 -105.1714 270° West 411 473 34,000  Level Denver Center
11:51PM 44.0036 -105.3511 270° West 416 479 34,100  Climbing Denver Center
11:52PM 44.0036 -105.5036 270° West 415 478 34,100 -60 Level Denver Center
11:53PM 44.0039 -105.6833 270° West 417 480 34,000 -60 Descending Denver Center
11:54PM 44.0042 -105.8350 270° West 414 476 34,000  Level Denver Center
11:55PM 44.0017 -105.9881 269° West 413 475 34,000  Level Denver Center
11:56PM 44.0022 -106.1606 270° West 406 467 34,000  Level Denver Center
11:57PM 44.0006 -106.3111 269° West 406 467 34,100 120 Climbing Denver Center
11:58PM 43.9950 -106.4086 266° West 404 465 34,300 420 Climbing Salt Lake Center
11:59PM 43.9606 -106.5758 254° West 404 465 34,900 480 Climbing Salt Lake Center
12:00AM 43.9214 -106.7158 249° West 406 467 35,400 480 Climbing Salt Lake Center
12:01AM 43.8753 -106.8792 249° West 407 468 35,900 240 Climbing Salt Lake Center
12:02AM 43.8317 -107.0264 248° West 409 471 36,000  Climbing Salt Lake Center
12:03AM 43.7908 -107.1725 249° West 406 467 36,000  Level Salt Lake Center
12:04AM 43.7500 -107.3169 249° West 404 465 36,000  Level Salt Lake Center
12:05AM 43.7094 -107.4606 249° West 400 460 36,000  Level Salt Lake Center
12:06AM 43.6672 -107.6053 248° West 404 465 36,000  Level Salt Lake Center
12:07AM 43.6244 -107.7525 248° West 411 473 36,100  Climbing Salt Lake Center
12:08AM 43.5814 -107.8981 248° West 411 473 36,000 -60 Descending Salt Lake Center
12:09AM 43.5397 -108.0453 249° West 411 473 36,000  Level Salt Lake Center
12:10AM 43.4950 -108.1897 247° West 411 473 36,000  Level Salt Lake Center
12:11AM 43.4522 -108.3356 248° West 411 473 36,100  Climbing Salt Lake Center
12:12AM 43.4122 -108.4811 249° West 408 470 36,100 -60 Level Salt Lake Center
12:13AM 43.3728 -108.6208 249° West 397 457 36,000 -60 Descending Salt Lake Center
12:14AM 43.3242 -108.7906 249° West 398 458 36,000  Level Salt Lake Center
12:15AM 43.2833 -108.9367 249° West 408 470 36,000  Level Salt Lake Center
12:16AM 43.2408 -109.0803 248° West 408 470 36,000  Level Salt Lake Center
12:17AM 43.1997 -109.2264 249° West 410 472 36,100  Climbing Salt Lake Center
12:18AM 43.1569 -109.3681 248° West 406 467 36,000 -60 Descending Salt Lake Center
12:19AM 43.1161 -109.5100 249° West 402 463 36,000  Level Salt Lake Center
12:20AM 43.0753 -109.6472 248° West 395 455 36,000  Level Salt Lake Center
12:21AM 43.0356 -109.7828 248° West 387 445 36,000  Level Salt Lake Center
12:22AM 42.9939 -109.9214 248° West 383 441 36,000  Level Salt Lake Center
12:23AM 42.9486 -110.0731 248° West 385 443 36,000  Level Salt Lake Center
12:24AM 42.9092 -110.2014 247° West 384 442 36,000  Level Salt Lake Center
12:25AM 42.8700 -110.3319 248° West 387 445 36,100  Climbing Salt Lake Center
12:26AM 42.8242 -110.4842 248° West 388 447 36,000 -60 Descending Salt Lake Center
12:27AM 42.7847 -110.6136 247° West 386 444 36,000  Level Salt Lake Center
12:28AM 42.7389 -110.7625 247° West 383 441 36,000  Level Salt Lake Center
12:29AM 42.6967 -110.8975 247° West 384 442 36,000  Level Salt Lake Center
12:30AM 42.6547 -111.0306 247° West 386 444 36,000  Level Salt Lake Center
12:31AM 42.6128 -111.1622 247° West 382 440 36,000  Level Salt Lake Center
12:33AM 42.5717 -111.2961 247° West 385 443 36,000  Level Salt Lake Center
12:34AM 42.5292 -111.4281 246° West 383 441 36,000  Level Salt Lake Center
12:35AM 42.4875 -111.5586 247° West 381 438 36,000  Level Salt Lake Center
12:36AM 42.4461 -111.6900 247° West 381 438 36,000  Level Salt Lake Center
12:37AM 42.4036 -111.8208 246° West 382 440 36,000  Level Salt Lake Center
12:38AM 42.3617 -111.9514 247° West 381 438 36,000  Level Salt Lake Center
12:39AM 42.3106 -112.1083 246° West 380 437 36,000  Level Salt Lake Center
12:40AM 42.2681 -112.2400 246° West 383 441 36,000  Level Salt Lake Center
12:41AM 42.2253 -112.3689 246° West 380 437 36,000  Level Salt Lake Center
12:42AM 42.1822 -112.5006 246° West 383 441 36,000  Level Salt Lake Center
12:43AM 42.1381 -112.6300 245° Southwest 382 440 36,000  Level Salt Lake Center
12:44AM 42.0942 -112.7608 246° West 385 443 36,000  Level Salt Lake Center
12:49AM 41.8746 -113.4988 246° West 36,000  Level FlightAware ADS-B
12:50AM 41.8530 -113.5169 212° Southwest 306 352 36,000  Level FlightAware ADS-B
12:50AM 41.1718 -112.6424 136° Southeast 36,000  Level FlightAware ADS-B
12:51AM 41.7722 -113.6919 136° Southeast 382 440 36,000  Level Salt Lake Center
12:52AM 41.7272 -113.8189 245° Southwest 380 437 36,000  Level Salt Lake Center
12:53AM 41.6797 -113.9503 244° Southwest 388 447 36,000  Level Salt Lake Center
12:54AM 41.6331 -114.0836 245° Southwest 395 455 36,000  Level Salt Lake Center
12:55AM 41.5856 -114.2158 244° Southwest 397 457 36,000  Level Salt Lake Center
12:56AM 41.5372 -114.3497 244° Southwest 399 459 36,000  Level Salt Lake Center
12:57AM 41.4897 -114.4819 244° Southwest 398 458 36,000  Level Salt Lake Center
12:58AM 41.4431 -114.6147 245° Southwest 398 458 36,000  Level Salt Lake Center
12:59AM 41.3836 -114.7733 243° Southwest 399 459 36,000  Level Salt Lake Center
01:00AM 41.3392 -114.8958 244° Southwest 396 456 36,000  Level Salt Lake Center
01:01AM 41.2928 -115.0219 244° Southwest 397 457 36,000  Level Salt Lake Center
01:02AM 41.2381 -115.1672 243° Southwest 393 452 36,000  Level Salt Lake Center
01:03AM 41.1917 -115.2900 243° Southwest 391 450 36,000  Level Salt Lake Center
01:04AM 41.1469 -115.4147 245° Southwest 390 449 36,000  Level Salt Lake Center
01:05AM 41.0925 -115.5589 243° Southwest 391 450 36,000  Level Salt Lake Center
01:06AM 41.0453 -115.6833 243° Southwest 394 453 36,000  Level Salt Lake Center
01:07AM 40.9983 -115.8089 244° Southwest 395 455 36,000  Level Salt Lake Center
01:08AM 40.9433 -115.9547 244° Southwest 397 457 36,000  Level Salt Lake Center
01:09AM 40.8956 -116.0789 243° Southwest 397 457 36,000  Level Salt Lake Center
01:10AM 40.8481 -116.2042 243° Southwest 397 457 36,000  Level Salt Lake Center
01:11AM 40.7917 -116.3497 243° Southwest 399 459 36,000  Level Salt Lake Center
01:12AM 40.7436 -116.4747 243° Southwest 399 459 36,000  Level Salt Lake Center
01:13AM 40.6956 -116.5983 243° Southwest 398 458 36,000  Level Salt Lake Center
01:14AM 40.6394 -116.7425 243° Southwest 397 457 36,000  Level Salt Lake Center
01:15AM 40.5906 -116.8658 242° Southwest 399 459 36,000  Level Salt Lake Center
01:16AM 40.5447 -117.0142 248° West 400 460 36,000  Level Salt Lake Center
01:17AM 40.5111 -117.1456 251° West 401 461 36,000  Level Salt Lake Center
01:18AM 40.4767 -117.2764 251° West 400 460 36,000  Level Salt Lake Center
01:19AM 40.4361 -117.4275 251° West 396 456 36,000  Level Salt Lake Center
01:20AM 40.4011 -117.5567 250° West 394 453 36,000  Level Salt Lake Center
01:21AM 40.3664 -117.6861 251° West 393 452 36,000  Level Salt Lake Center
01:22AM 40.3272 -117.8331 251° West 387 445 36,000  Level Salt Lake Center
01:23AM 40.3047 -117.9214 252° West 390 449 36,000  Level Oakland Center
01:24AM 40.2675 -118.0569 250° West 387 445 36,000  Level Oakland Center
01:25AM 40.2336 -118.1928 252° West 389 448 36,000  Level Oakland Center
01:26AM 40.1958 -118.3264 250° West 392 451 36,000  Level Oakland Center
01:27AM 40.1522 -118.4561 246° West 392 451 36,000  Level Oakland Center
01:28AM 40.0994 -118.5822 241° Southwest 396 456 36,000  Level Oakland Center
01:29AM 40.0472 -118.7067 241° Southwest 394 453 36,000  Level Oakland Center
01:30AM 39.9953 -118.8336 242° Southwest 397 457 36,000  Level Oakland Center
01:31AM 39.9431 -118.9581 241° Southwest 395 455 36,000  Level Oakland Center
01:32AM 39.8906 -119.0825 241° Southwest 394 453 36,000 -300 Level Oakland Center
01:33AM 39.8278 -119.2317 241° Southwest 395 455 35,500 -780 Descending Oakland Center
01:34AM 39.7756 -119.3542 241° Southwest 392 451 34,500 -1,260 Descending Oakland Center
01:35AM 39.7222 -119.4806 241° Southwest 399 459 33,000 -1,500 Descending Oakland Center
01:36AM 39.6669 -119.6108 241° Southwest 412 474 31,500 -1,500 Descending Oakland Center
01:37AM 39.6111 -119.7422 241° Southwest 417 480 30,000 -1,560 Descending Oakland Center
01:38AM 39.5547 -119.8764 241° Southwest 425 489 28,400 -1,800 Descending Oakland Center
01:39AM 39.4964 -120.0061 240° Southwest 419 482 26,400 -2,040 Descending Oakland Center
01:40AM 39.4389 -120.1422 241° Southwest 413 475 24,300 -2,040 Descending Oakland Center
01:41AM 39.3844 -120.2689 241° Southwest 405 466 22,300 -1,980 Descending Oakland Center
01:42AM 39.3297 -120.3936 240° Southwest 401 461 20,400 -2,040 Descending Oakland Center
01:43AM 39.2767 -120.5164 241° Southwest 393 452 18,200 -2,040 Descending Oakland Center
01:44AM 39.2239 -120.6339 240° Southwest 381 438 16,400 -1,140 Descending Oakland Center
01:45AM 39.1736 -120.7503 241° Southwest 373 429 16,000 -720 Descending Oakland Center
01:46AM 39.1228 -120.8647 240° Southwest 370 426 15,000 -1,440 Descending Oakland Center
01:47AM 39.0761 -120.9742 241° Southwest 356 410 13,100 -1,980 Descending Oakland Center
01:48AM 39.0289 -121.0778 240° Southwest 342 394 11,100 -1,620 Descending Oakland Center
01:49AM 38.9847 -121.1769 240° Southwest 328 377 9,900 -960 Descending Oakland Center
01:50AM 38.9447 -121.2653 240° Southwest 298 343 9,200 -1,260 Descending Oakland Center
01:51AM 38.9075 -121.3494 240° Southwest 277 319 7,400 -1,800 Descending Oakland Center
01:52AM 38.8894 -121.4367 255° West 261 300 5,600 -1,500 Descending Oakland Center
01:53AM 38.8833 -121.5211 265° West 241 277 4,400 -1,440 Descending Oakland Center
01:54AM 38.8631 -121.5764 245° Southwest 197 227 2,800 -1,260 Descending Oakland Center
01:55AM 38.8189 -121.5989 202° Southwest 181 208 1,900 -840 Descending Oakland Center
01:56AM 38.8000 -121.6000 183° South 148 170 1,600 -660 Descending Northern Cal TRACON
01:57AM 38.7500 -121.6000 180° South 147 169 900 -720 Descending Northern Cal TRACON
01:58AM 38.7167 -121.6000 180° South 135 155 200 -720 Descending Northern Cal TRACON
02:00AM 38.6954 -121.5908 175° South  Level Estimated